Terminal Aerodrome Forecast
Issued by NWS Blacksburg, VA

Current Version | Previous Version | Graphics & Text | Print | Product List | Glossary On
Versions: 1 2 3 4 5 6 7 8 9 10 11 12 13 14 15 16
000
FTUS41 KRNK 112343
TAFBLF
TAF
KBLF 112343Z 1200/1224 25007KT P6SM FEW250
     FM120300 21008KT P6SM BKN130 WS020/23040KT
     FM120500 23009KT P6SM BKN035
     FM121200 28013G23KT 6SM -SHSN OVC012
      TEMPO 1214/1218 1SM -SHSN BR OVC008
     FM121800 29014G25KT 4SM -SHSN BLSN OVC025=

USA.gov is the U.S. government's official web portal to all federal, state and local government web resources and services.